createdAt,value
2019-02-03T00:01:58.108Z,107.33
2019-02-03T00:04:28.288Z,83.20
2019-02-03T00:07:03.363Z,103.60
2019-02-03T00:09:29.822Z,70.15
2019-02-03T00:11:59.980Z,97.50
2019-02-03T00:14:29.939Z,82.50
2019-02-03T00:17:00.176Z,74.83
2019-02-03T00:19:30.216Z,90.73
2019-02-03T00:22:00.299Z,102.13
2019-02-03T00:24:30.257Z,89.70
2019-02-03T00:27:00.367Z,85.43
2019-02-03T00:29:30.816Z,80.53
2019-02-03T00:32:00.983Z,92.53
2019-02-03T00:34:32.803Z,81.60
2019-02-03T00:37:14.792Z,86.53
2019-02-03T00:39:35.656Z,80.40
2019-02-03T00:42:05.835Z,74.60
2019-02-03T00:44:35.904Z,90.40
2019-02-03T00:47:05.899Z,84.20
2019-02-03T00:49:35.833Z,89.77
2019-02-03T00:52:06.172Z,87.37
2019-02-03T00:54:36.100Z,87.67
2019-02-03T00:57:06.155Z,63.80
2019-02-03T00:59:36.160Z,85.63
2019-02-03T01:02:06.442Z,81.30
2019-02-03T01:04:36.523Z,74.92
2019-02-03T01:07:07.312Z,79.40
2019-02-03T01:09:37.345Z,83.07
2019-02-03T01:12:07.439Z,79.47
2019-02-03T01:14:37.489Z,80.90
2019-02-03T01:17:07.633Z,76.07
2019-02-03T01:19:38.005Z,79.40
2019-02-03T01:22:08.075Z,95.57
2019-02-03T01:24:38.043Z,72.70
2019-02-03T01:27:08.011Z,65.80
2019-02-03T01:29:38.078Z,89.58
2019-02-03T01:32:08.286Z,79.23
2019-02-03T01:34:38.302Z,75.07
2019-02-03T01:37:08.310Z,89.77
2019-02-03T01:39:38.314Z,72.87
2019-02-03T01:42:08.341Z,61.73
2019-02-03T01:44:38.510Z,71.60
2019-02-03T01:47:08.589Z,70.83
2019-02-03T01:49:38.581Z,65.90
2019-02-03T01:52:08.622Z,67.30
2019-02-03T01:54:38.675Z,79.43
2019-02-03T01:57:08.713Z,89.07
2019-02-03T01:59:38.704Z,90.75
2019-02-03T02:02:08.775Z,80.50
2019-02-03T02:04:38.784Z,79.53
2019-02-03T02:07:08.785Z,82.33
2019-02-03T02:09:38.822Z,89.33
2019-02-03T02:12:09.190Z,93.57
2019-02-03T02:14:39.247Z,96.10
2019-02-03T02:17:09.323Z,93.70
2019-02-03T02:19:39.373Z,79.23
2019-02-03T02:22:09.408Z,83.30
2019-02-03T02:24:39.755Z,71.75
2019-02-03T02:27:09.808Z,75.83
2019-02-03T02:29:39.824Z,72.62
2019-02-03T02:32:09.887Z,93.67
2019-02-03T02:34:40.048Z,71.60
2019-02-03T02:37:09.946Z,90.80
2019-02-03T02:39:39.895Z,73.40
2019-02-03T02:42:09.977Z,92.83
2019-02-03T02:44:39.987Z,87.45
2019-02-03T02:47:10.117Z,82.37
2019-02-03T02:49:40.022Z,85.92
2019-02-03T02:52:10.412Z,89.30
2019-02-03T02:54:40.316Z,75.27
2019-02-03T02:57:10.233Z,86.67
2019-02-03T02:59:40.205Z,73.62
2019-02-03T03:02:10.379Z,76.87
2019-02-03T03:04:40.848Z,78.37
2019-02-03T03:07:10.896Z,85.83
2019-02-03T03:09:40.971Z,63.37
2019-02-03T03:12:10.884Z,75.17
2019-02-03T03:14:40.880Z,80.70
2019-02-03T03:17:11.176Z,75.83
2019-02-03T03:19:41.090Z,86.70
2019-02-03T03:22:11.042Z,72.40
2019-02-03T03:24:41.044Z,82.78
2019-02-03T03:27:10.960Z,63.73
2019-02-03T03:29:40.977Z,73.23
2019-02-03T03:32:10.868Z,90.30
2019-02-03T03:34:40.964Z,71.05
2019-02-03T03:37:10.963Z,72.10
2019-02-03T03:39:40.955Z,83.97
2019-02-03T03:42:11.135Z,67.00
2019-02-03T03:44:41.314Z,78.43
2019-02-03T03:47:11.217Z,77.50
2019-02-03T03:49:41.132Z,74.50
2019-02-03T03:52:11.335Z,81.00
2019-02-03T03:54:41.365Z,69.10
2019-02-03T03:57:11.790Z,69.43
2019-02-03T03:59:41.753Z,79.60
2019-02-03T04:02:11.882Z,79.65
2019-02-03T04:04:41.888Z,70.47
2019-02-03T04:07:12.113Z,82.00
2019-02-03T04:09:42.476Z,83.27
2019-02-03T04:12:12.499Z,75.23
2019-02-03T04:14:42.549Z,84.30
2019-02-03T04:17:12.693Z,88.07
2019-02-03T04:19:42.596Z,78.70
2019-02-03T04:22:12.974Z,79.30
2019-02-03T04:24:42.923Z,98.95
2019-02-03T04:27:12.922Z,97.17
2019-02-03T04:29:42.814Z,89.57
2019-02-03T04:32:12.725Z,85.70
2019-02-03T04:34:42.633Z,71.53
2019-02-03T04:37:12.621Z,65.40
2019-02-03T04:39:42.564Z,90.23
2019-02-03T04:42:12.542Z,85.63
2019-02-03T04:44:42.550Z,75.17
2019-02-03T04:47:12.555Z,97.77
2019-02-03T04:49:42.719Z,70.40
2019-02-03T04:52:12.768Z,91.23
2019-02-03T04:54:42.693Z,82.97
2019-02-03T04:57:12.609Z,87.57
2019-02-03T04:59:42.522Z,88.30
2019-02-03T05:02:12.860Z,84.67
2019-02-03T05:04:42.820Z,88.00
2019-02-03T05:07:12.823Z,99.77
2019-02-03T05:09:42.771Z,80.00
2019-02-03T05:12:12.731Z,96.13
2019-02-03T05:14:42.747Z,83.00
2019-02-03T05:17:12.641Z,81.47
2019-02-03T05:19:42.600Z,82.73
2019-02-03T05:22:12.541Z,88.40
2019-02-03T05:24:42.446Z,81.70
2019-02-03T05:27:12.375Z,95.07
2019-02-03T05:29:42.351Z,69.93
2019-02-03T05:32:12.262Z,93.97
2019-02-03T05:34:42.335Z,75.97
2019-02-03T05:37:12.495Z,65.80
2019-02-03T05:39:42.576Z,70.53
2019-02-03T05:42:12.734Z,59.93
2019-02-03T05:44:42.634Z,53.50
2019-02-03T05:47:12.776Z,54.83
2019-02-03T05:49:42.708Z,47.73
2019-02-03T05:52:12.629Z,59.80
2019-02-03T05:54:42.824Z,53.17
2019-02-03T05:57:12.791Z,56.87
2019-02-03T05:59:42.834Z,51.27
2019-02-03T06:02:12.753Z,53.53
2019-02-03T06:04:42.708Z,44.30
2019-02-03T06:07:12.802Z,59.77
2019-02-03T06:09:42.692Z,45.38
2019-02-03T06:12:12.768Z,54.87
2019-02-03T06:14:42.763Z,63.43
2019-02-03T06:17:12.775Z,44.17
2019-02-03T06:19:42.715Z,49.33
2019-02-03T06:22:13.085Z,47.73
2019-02-03T06:24:43.009Z,53.95
2019-02-03T06:27:13.057Z,38.10
2019-02-03T06:29:43.023Z,49.23
2019-02-03T06:32:13.125Z,59.00
2019-02-03T06:34:43.172Z,57.37
2019-02-03T06:37:13.256Z,48.37
2019-02-03T06:39:48.820Z,40.67
2019-02-03T06:42:15.154Z,50.40
2019-02-03T06:44:45.148Z,49.23
2019-02-03T06:47:24.460Z,43.10
2019-02-03T06:49:54.322Z,44.13
2019-02-03T06:52:24.419Z,33.73
2019-02-03T06:54:54.307Z,43.67
2019-02-03T06:57:24.279Z,39.88
2019-02-03T06:59:54.423Z,39.23
2019-02-03T07:02:24.413Z,41.87
2019-02-03T07:04:54.299Z,43.10
2019-02-03T07:07:24.216Z,33.57
2019-02-03T07:10:00.390Z,44.47
2019-02-03T07:12:25.823Z,43.98
2019-02-03T07:14:55.703Z,38.50
2019-02-03T07:17:25.612Z,33.45
2019-02-03T07:19:55.494Z,38.93
2019-02-03T07:22:25.468Z,39.07
2019-02-03T07:24:55.684Z,36.80
2019-02-03T07:27:25.596Z,35.23
2019-02-03T07:29:55.583Z,32.00
2019-02-03T07:32:25.581Z,28.77
2019-02-03T07:34:55.484Z,31.40
2019-02-03T07:37:25.458Z,38.63
2019-02-03T07:39:55.370Z,29.87
2019-02-03T07:42:25.349Z,30.50
2019-02-03T07:44:55.317Z,29.60
2019-02-03T07:47:25.194Z,27.00
2019-02-03T07:49:55.086Z,36.83
2019-02-03T07:52:24.998Z,28.92
2019-02-03T07:54:54.905Z,28.43
2019-02-03T07:57:24.855Z,25.97
2019-02-03T07:59:54.850Z,32.03
2019-02-03T08:02:24.853Z,27.97
2019-02-03T08:04:54.934Z,34.63
2019-02-03T08:07:24.815Z,24.40
2019-02-03T08:09:54.764Z,28.57
2019-02-03T08:12:24.782Z,31.50
2019-02-03T08:14:54.669Z,28.07
2019-02-03T08:17:24.712Z,29.70
2019-02-03T08:19:54.578Z,21.33
2019-02-03T08:22:24.714Z,23.77
2019-02-03T08:24:54.701Z,28.40
2019-02-03T08:27:24.731Z,27.67
2019-02-03T08:29:54.673Z,23.90
2019-02-03T08:32:25.002Z,21.00
2019-02-03T08:34:54.965Z,31.10
2019-02-03T08:37:24.865Z,25.37
2019-02-03T08:39:54.860Z,22.67
2019-02-03T08:42:24.744Z,24.57
2019-02-03T08:44:54.897Z,24.00
2019-02-03T08:47:24.992Z,22.07
2019-02-03T08:49:54.880Z,21.67
2019-02-03T08:52:24.889Z,22.00
2019-02-03T08:54:58.539Z,23.33
2019-02-03T08:57:26.670Z,17.70
2019-02-03T08:59:56.688Z,18.70
2019-02-03T09:02:26.697Z,11.77
2019-02-03T09:04:56.756Z,14.73
2019-02-03T09:07:26.690Z,20.20
2019-02-03T09:09:56.613Z,16.60
2019-02-03T09:12:26.508Z,14.87
2019-02-03T09:14:56.398Z,20.30
2019-02-03T09:17:26.344Z,21.20
2019-02-03T09:19:58.098Z,15.60
2019-02-03T09:22:27.895Z,16.80
2019-02-03T09:24:58.069Z,19.07
2019-02-03T09:27:28.060Z,14.68
2019-02-03T09:29:57.964Z,17.97
2019-02-03T09:32:27.850Z,13.67
2019-02-03T09:34:57.891Z,11.80
